sensor_id;sensor_type;location;lat;lon;timestamp;P1;durP1;ratioP1;P2;durP2;ratioP2
47289;SDS011;33197;52.524;13.444;2023-02-28T00:01:22;5.85;;;3.05;;
47289;SDS011;33197;52.524;13.444;2023-02-28T00:03:49;6.65;;;3.28;;
47289;SDS011;33197;52.524;13.444;2023-02-28T00:06:17;7.07;;;3.10;;
47289;SDS011;33197;52.524;13.444;2023-02-28T00:08:44;7.78;;;3.35;;
47289;SDS011;33197;52.524;13.444;2023-02-28T00:11:12;8.88;;;3.55;;
47289;SDS011;33197;52.524;13.444;2023-02-28T00:13:41;5.40;;;2.65;;
47289;SDS011;33197;52.524;13.444;2023-02-28T00:16:13;7.30;;;3.42;;
47289;SDS011;33197;52.524;13.444;2023-02-28T00:18:45;7.20;;;3.10;;
47289;SDS011;33197;52.524;13.444;2023-02-28T00:21:14;7.65;;;3.33;;
47289;SDS011;33197;52.524;13.444;2023-02-28T00:23:42;6.15;;;3.22;;
47289;SDS011;33197;52.524;13.444;2023-02-28T00:26:10;7.63;;;3.47;;
47289;SDS011;33197;52.524;13.444;2023-02-28T00:28:37;8.07;;;3.22;;
47289;SDS011;33197;52.524;13.444;2023-02-28T00:31:05;8.68;;;3.42;;
47289;SDS011;33197;52.524;13.444;2023-02-28T00:33:32;8.20;;;3.10;;
47289;SDS011;33197;52.524;13.444;2023-02-28T00:36:06;9.65;;;3.92;;
47289;SDS011;33197;52.524;13.444;2023-02-28T00:38:35;7.70;;;3.50;;
47289;SDS011;33197;52.524;13.444;2023-02-28T00:41:02;5.95;;;3.35;;
47289;SDS011;33197;52.524;13.444;2023-02-28T00:43:33;8.38;;;3.88;;
47289;SDS011;33197;52.524;13.444;2023-02-28T00:46:01;7.75;;;3.42;;
47289;SDS011;33197;52.524;13.444;2023-02-28T00:48:29;9.55;;;3.92;;
47289;SDS011;33197;52.524;13.444;2023-02-28T00:50:56;6.00;;;3.38;;
47289;SDS011;33197;52.524;13.444;2023-02-28T00:53:24;7.10;;;3.42;;
47289;SDS011;33197;52.524;13.444;2023-02-28T00:55:51;8.40;;;3.40;;
47289;SDS011;33197;52.524;13.444;2023-02-28T00:58:19;9.70;;;4.03;;
47289;SDS011;33197;52.524;13.444;2023-02-28T01:00:46;7.25;;;3.40;;
47289;SDS011;33197;52.524;13.444;2023-02-28T01:03:16;7.38;;;3.58;;
47289;SDS011;33197;52.524;13.444;2023-02-28T01:05:44;7.15;;;3.92;;
47289;SDS011;33197;52.524;13.444;2023-02-28T01:08:11;7.68;;;3.33;;
47289;SDS011;33197;52.524;13.444;2023-02-28T01:10:40;7.78;;;3.88;;
47289;SDS011;33197;52.524;13.444;2023-02-28T01:13:08;13.15;;;4.15;;
47289;SDS011;33197;52.524;13.444;2023-02-28T01:15:35;9.07;;;3.72;;
47289;SDS011;33197;52.524;13.444;2023-02-28T01:18:02;9.85;;;4.20;;
47289;SDS011;33197;52.524;13.444;2023-02-28T01:20:29;8.93;;;3.92;;
47289;SDS011;33197;52.524;13.444;2023-02-28T01:22:57;9.23;;;4.05;;
47289;SDS011;33197;52.524;13.444;2023-02-28T01:25:24;8.75;;;4.00;;
47289;SDS011;33197;52.524;13.444;2023-02-28T01:27:51;8.32;;;3.65;;
47289;SDS011;33197;52.524;13.444;2023-02-28T01:30:18;10.85;;;4.53;;
47289;SDS011;33197;52.524;13.444;2023-02-28T01:32:46;8.27;;;4.22;;
47289;SDS011;33197;52.524;13.444;2023-02-28T01:35:13;8.32;;;4.18;;
47289;SDS011;33197;52.524;13.444;2023-02-28T01:37:40;9.98;;;4.28;;
47289;SDS011;33197;52.524;13.444;2023-02-28T01:40:09;11.05;;;4.50;;
47289;SDS011;33197;52.524;13.444;2023-02-28T01:42:36;9.73;;;4.60;;
47289;SDS011;33197;52.524;13.444;2023-02-28T01:45:06;9.18;;;3.85;;
47289;SDS011;33197;52.524;13.444;2023-02-28T01:47:44;9.13;;;4.78;;
47289;SDS011;33197;52.524;13.444;2023-02-28T01:50:14;13.95;;;4.60;;
47289;SDS011;33197;52.524;13.444;2023-02-28T01:52:43;7.90;;;4.10;;
47289;SDS011;33197;52.524;13.444;2023-02-28T01:55:12;8.35;;;4.57;;
47289;SDS011;33197;52.524;13.444;2023-02-28T01:57:45;9.18;;;4.68;;
47289;SDS011;33197;52.524;13.444;2023-02-28T02:00:17;13.25;;;4.80;;
47289;SDS011;33197;52.524;13.444;2023-02-28T02:02:47;11.90;;;4.97;;
47289;SDS011;33197;52.524;13.444;2023-02-28T02:05:20;10.52;;;5.20;;
47289;SDS011;33197;52.524;13.444;2023-02-28T02:07:51;10.48;;;4.85;;
47289;SDS011;33197;52.524;13.444;2023-02-28T02:12:55;11.05;;;4.85;;
47289;SDS011;33197;52.524;13.444;2023-02-28T02:18:30;14.05;;;4.97;;
47289;SDS011;33197;52.524;13.444;2023-02-28T02:21:15;11.48;;;4.90;;
47289;SDS011;33197;52.524;13.444;2023-02-28T02:26:51;10.10;;;4.97;;
47289;SDS011;33197;52.524;13.444;2023-02-28T02:29:33;12.57;;;4.88;;
47289;SDS011;33197;52.524;13.444;2023-02-28T02:32:20;9.23;;;4.70;;
47289;SDS011;33197;52.524;13.444;2023-02-28T02:41:04;11.50;;;4.80;;
47289;SDS011;33197;52.524;13.444;2023-02-28T02:46:09;12.10;;;5.15;;
47289;SDS011;33197;52.524;13.444;2023-02-28T02:48:39;11.15;;;5.50;;
47289;SDS011;33197;52.524;13.444;2023-02-28T02:51:10;10.40;;;5.30;;
47289;SDS011;33197;52.524;13.444;2023-02-28T02:53:42;11.35;;;5.65;;
47289;SDS011;33197;52.524;13.444;2023-02-28T02:56:19;10.98;;;5.03;;
47289;SDS011;33197;52.524;13.444;2023-02-28T02:58:48;11.23;;;4.60;;
47289;SDS011;33197;52.524;13.444;2023-02-28T03:01:21;9.70;;;4.60;;
47289;SDS011;33197;52.524;13.444;2023-02-28T03:03:55;11.52;;;4.65;;
47289;SDS011;33197;52.524;13.444;2023-02-28T03:06:28;10.27;;;5.38;;
47289;SDS011;33197;52.524;13.444;2023-02-28T03:08:55;11.27;;;5.43;;
47289;SDS011;33197;52.524;13.444;2023-02-28T03:11:22;13.95;;;6.47;;
47289;SDS011;33197;52.524;13.444;2023-02-28T03:30:49;13.88;;;5.13;;
47289;SDS011;33197;52.524;13.444;2023-02-28T03:33:25;13.80;;;6.65;;
47289;SDS011;33197;52.524;13.444;2023-02-28T03:35:57;14.07;;;6.40;;
47289;SDS011;33197;52.524;13.444;2023-02-28T03:38:38;13.82;;;5.97;;
47289;SDS011;33197;52.524;13.444;2023-02-28T03:41:19;13.65;;;5.97;;
47289;SDS011;33197;52.524;13.444;2023-02-28T03:43:53;18.33;;;6.60;;
47289;SDS011;33197;52.524;13.444;2023-02-28T03:46:24;10.48;;;5.50;;
47289;SDS011;33197;52.524;13.444;2023-02-28T03:48:55;11.85;;;6.45;;
47289;SDS011;33197;52.524;13.444;2023-02-28T03:51:34;11.85;;;5.93;;
47289;SDS011;33197;52.524;13.444;2023-02-28T03:54:05;14.10;;;6.30;;
47289;SDS011;33197;52.524;13.444;2023-02-28T03:56:39;16.20;;;7.10;;
47289;SDS011;33197;52.524;13.444;2023-02-28T03:59:13;14.52;;;6.25;;
47289;SDS011;33197;52.524;13.444;2023-02-28T04:01:49;10.93;;;5.80;;
47289;SDS011;33197;52.524;13.444;2023-02-28T04:04:17;14.32;;;6.25;;
47289;SDS011;33197;52.524;13.444;2023-02-28T04:06:45;13.52;;;6.28;;
47289;SDS011;33197;52.524;13.444;2023-02-28T04:09:13;11.13;;;5.10;;
47289;SDS011;33197;52.524;13.444;2023-02-28T04:11:50;12.48;;;6.05;;
47289;SDS011;33197;52.524;13.444;2023-02-28T04:14:19;11.43;;;5.55;;
47289;SDS011;33197;52.524;13.444;2023-02-28T04:16:47;11.57;;;5.10;;
47289;SDS011;33197;52.524;13.444;2023-02-28T04:19:14;14.50;;;5.63;;
47289;SDS011;33197;52.524;13.444;2023-02-28T04:21:42;11.63;;;5.75;;
47289;SDS011;33197;52.524;13.444;2023-02-28T04:24:12;9.93;;;5.38;;
47289;SDS011;33197;52.524;13.444;2023-02-28T04:26:44;10.88;;;6.40;;
47289;SDS011;33197;52.524;13.444;2023-02-28T04:29:14;7.38;;;4.35;;
47289;SDS011;33197;52.524;13.444;2023-02-28T04:31:46;10.63;;;5.28;;
47289;SDS011;33197;52.524;13.444;2023-02-28T04:34:13;11.10;;;5.45;;
47289;SDS011;33197;52.524;13.444;2023-02-28T04:36:40;13.88;;;5.32;;
47289;SDS011;33197;52.524;13.444;2023-02-28T04:39:08;12.93;;;5.15;;
47289;SDS011;33197;52.524;13.444;2023-02-28T04:41:36;11.68;;;5.43;;
47289;SDS011;33197;52.524;13.444;2023-02-28T04:44:04;9.93;;;5.13;;
47289;SDS011;33197;52.524;13.444;2023-02-28T04:46:31;10.55;;;5.15;;
47289;SDS011;33197;52.524;13.444;2023-02-28T04:48:58;12.63;;;5.60;;
47289;SDS011;33197;52.524;13.444;2023-02-28T04:51:26;10.80;;;5.90;;
47289;SDS011;33197;52.524;13.444;2023-02-28T04:53:54;9.10;;;4.72;;
47289;SDS011;33197;52.524;13.444;2023-02-28T04:56:21;11.90;;;5.20;;
47289;SDS011;33197;52.524;13.444;2023-02-28T04:58:49;10.77;;;6.22;;
47289;SDS011;33197;52.524;13.444;2023-02-28T05:01:27;12.40;;;6.28;;
47289;SDS011;33197;52.524;13.444;2023-02-28T05:03:57;12.70;;;6.07;;
47289;SDS011;33197;52.524;13.444;2023-02-28T05:06:26;13.13;;;6.03;;
47289;SDS011;33197;52.524;13.444;2023-02-28T05:08:55;14.32;;;5.53;;
47289;SDS011;33197;52.524;13.444;2023-02-28T05:11:24;11.77;;;5.60;;
47289;SDS011;33197;52.524;13.444;2023-02-28T05:13:52;14.95;;;6.18;;
47289;SDS011;33197;52.524;13.444;2023-02-28T05:16:20;13.13;;;6.47;;
47289;SDS011;33197;52.524;13.444;2023-02-28T05:18:48;16.05;;;6.35;;
47289;SDS011;33197;52.524;13.444;2023-02-28T05:21:23;12.68;;;5.88;;
47289;SDS011;33197;52.524;13.444;2023-02-28T05:23:52;14.52;;;6.50;;
47289;SDS011;33197;52.524;13.444;2023-02-28T05:26:20;16.70;;;6.15;;
47289;SDS011;33197;52.524;13.444;2023-02-28T05:28:47;11.48;;;6.47;;
47289;SDS011;33197;52.524;13.444;2023-02-28T05:31:15;11.27;;;5.60;;
47289;SDS011;33197;52.524;13.444;2023-02-28T05:33:43;10.50;;;5.65;;
47289;SDS011;33197;52.524;13.444;2023-02-28T05:36:10;14.85;;;5.85;;
47289;SDS011;33197;52.524;13.444;2023-02-28T05:38:37;12.10;;;6.13;;
47289;SDS011;33197;52.524;13.444;2023-02-28T05:41:08;12.38;;;6.32;;
47289;SDS011;33197;52.524;13.444;2023-02-28T05:43:36;16.23;;;6.38;;
47289;SDS011;33197;52.524;13.444;2023-02-28T05:46:04;12.27;;;6.30;;
47289;SDS011;33197;52.524;13.444;2023-02-28T05:48:36;13.25;;;6.70;;
47289;SDS011;33197;52.524;13.444;2023-02-28T05:51:04;15.68;;;6.30;;
47289;SDS011;33197;52.524;13.444;2023-02-28T05:53:32;15.68;;;6.55;;
47289;SDS011;33197;52.524;13.444;2023-02-28T05:56:00;17.25;;;7.95;;
47289;SDS011;33197;52.524;13.444;2023-02-28T05:58:28;15.13;;;6.97;;
47289;SDS011;33197;52.524;13.444;2023-02-28T06:01:00;14.23;;;7.10;;
47289;SDS011;33197;52.524;13.444;2023-02-28T06:03:45;11.60;;;7.20;;
47289;SDS011;33197;52.524;13.444;2023-02-28T06:06:12;14.80;;;7.95;;
47289;SDS011;33197;52.524;13.444;2023-02-28T06:08:40;14.50;;;7.72;;
47289;SDS011;33197;52.524;13.444;2023-02-28T06:11:07;17.58;;;7.60;;
47289;SDS011;33197;52.524;13.444;2023-02-28T06:13:34;16.80;;;8.55;;
47289;SDS011;33197;52.524;13.444;2023-02-28T06:16:01;15.63;;;7.90;;
47289;SDS011;33197;52.524;13.444;2023-02-28T06:18:28;14.70;;;8.07;;
47289;SDS011;33197;52.524;13.444;2023-02-28T06:20:56;16.55;;;8.27;;
47289;SDS011;33197;52.524;13.444;2023-02-28T06:23:23;17.95;;;8.50;;
47289;SDS011;33197;52.524;13.444;2023-02-28T06:25:50;17.35;;;8.52;;
47289;SDS011;33197;52.524;13.444;2023-02-28T06:28:17;15.93;;;8.75;;
47289;SDS011;33197;52.524;13.444;2023-02-28T06:30:45;20.95;;;9.25;;
47289;SDS011;33197;52.524;13.444;2023-02-28T06:33:12;15.00;;;7.57;;
47289;SDS011;33197;52.524;13.444;2023-02-28T06:35:42;15.25;;;8.63;;
47289;SDS011;33197;52.524;13.444;2023-02-28T06:38:10;15.27;;;8.35;;
47289;SDS011;33197;52.524;13.444;2023-02-28T06:40:37;14.88;;;7.68;;
47289;SDS011;33197;52.524;13.444;2023-02-28T06:43:05;14.55;;;7.70;;
47289;SDS011;33197;52.524;13.444;2023-02-28T06:45:32;16.35;;;8.23;;
47289;SDS011;33197;52.524;13.444;2023-02-28T06:47:59;19.42;;;9.18;;
47289;SDS011;33197;52.524;13.444;2023-02-28T06:50:27;18.77;;;8.75;;
47289;SDS011;33197;52.524;13.444;2023-02-28T06:52:56;21.67;;;9.20;;
47289;SDS011;33197;52.524;13.444;2023-02-28T06:55:23;15.05;;;7.53;;
47289;SDS011;33197;52.524;13.444;2023-02-28T06:57:50;16.48;;;7.80;;
47289;SDS011;33197;52.524;13.444;2023-02-28T07:00:17;15.15;;;8.32;;
47289;SDS011;33197;52.524;13.444;2023-02-28T07:02:45;18.42;;;8.57;;
47289;SDS011;33197;52.524;13.444;2023-02-28T07:05:12;17.23;;;8.80;;
47289;SDS011;33197;52.524;13.444;2023-02-28T07:07:40;20.35;;;8.60;;
47289;SDS011;33197;52.524;13.444;2023-02-28T07:10:10;19.40;;;8.63;;
47289;SDS011;33197;52.524;13.444;2023-02-28T07:12:38;14.82;;;7.10;;
47289;SDS011;33197;52.524;13.444;2023-02-28T07:15:06;14.65;;;8.10;;
47289;SDS011;33197;52.524;13.444;2023-02-28T07:17:33;14.90;;;7.82;;
47289;SDS011;33197;52.524;13.444;2023-02-28T07:20:01;13.75;;;7.63;;
47289;SDS011;33197;52.524;13.444;2023-02-28T07:22:28;18.00;;;8.07;;
47289;SDS011;33197;52.524;13.444;2023-02-28T07:24:55;16.05;;;8.48;;
47289;SDS011;33197;52.524;13.444;2023-02-28T07:27:22;17.83;;;8.80;;
47289;SDS011;33197;52.524;13.444;2023-02-28T07:29:52;15.65;;;8.45;;
47289;SDS011;33197;52.524;13.444;2023-02-28T07:32:20;13.88;;;8.10;;
47289;SDS011;33197;52.524;13.444;2023-02-28T07:34:47;15.65;;;7.20;;
47289;SDS011;33197;52.524;13.444;2023-02-28T07:37:15;14.95;;;7.63;;
47289;SDS011;33197;52.524;13.444;2023-02-28T07:39:42;17.40;;;7.78;;
47289;SDS011;33197;52.524;13.444;2023-02-28T07:42:09;14.32;;;7.95;;
47289;SDS011;33197;52.524;13.444;2023-02-28T07:44:39;14.85;;;7.97;;
47289;SDS011;33197;52.524;13.444;2023-02-28T07:47:07;15.70;;;7.57;;
47289;SDS011;33197;52.524;13.444;2023-02-28T07:49:36;24.70;;;8.13;;
47289;SDS011;33197;52.524;13.444;2023-02-28T07:52:04;17.95;;;8.63;;
47289;SDS011;33197;52.524;13.444;2023-02-28T07:54:31;21.90;;;9.60;;
47289;SDS011;33197;52.524;13.444;2023-02-28T07:56:59;19.17;;;8.60;;
47289;SDS011;33197;52.524;13.444;2023-02-28T07:59:26;15.13;;;7.85;;
47289;SDS011;33197;52.524;13.444;2023-02-28T08:01:54;18.17;;;7.45;;
47289;SDS011;33197;52.524;13.444;2023-02-28T08:04:24;17.55;;;7.38;;
47289;SDS011;33197;52.524;13.444;2023-02-28T08:06:51;15.82;;;6.75;;
47289;SDS011;33197;52.524;13.444;2023-02-28T08:09:19;13.10;;;5.95;;
47289;SDS011;33197;52.524;13.444;2023-02-28T08:11:47;13.45;;;6.30;;
47289;SDS011;33197;52.524;13.444;2023-02-28T08:14:14;13.23;;;6.45;;
47289;SDS011;33197;52.524;13.444;2023-02-28T08:16:41;8.68;;;4.97;;
47289;SDS011;33197;52.524;13.444;2023-02-28T08:19:09;11.55;;;5.50;;
47289;SDS011;33197;52.524;13.444;2023-02-28T08:21:36;11.32;;;5.78;;
47289;SDS011;33197;52.524;13.444;2023-02-28T08:24:04;8.95;;;4.80;;
47289;SDS011;33197;52.524;13.444;2023-02-28T08:26:31;14.65;;;4.55;;
47289;SDS011;33197;52.524;13.444;2023-02-28T08:28:58;9.05;;;4.18;;
47289;SDS011;33197;52.524;13.444;2023-02-28T08:31:27;10.98;;;4.00;;
47289;SDS011;33197;52.524;13.444;2023-02-28T08:33:55;10.02;;;3.80;;
47289;SDS011;33197;52.524;13.444;2023-02-28T08:36:26;6.28;;;3.75;;
47289;SDS011;33197;52.524;13.444;2023-02-28T08:38:56;9.65;;;3.45;;
47289;SDS011;33197;52.524;13.444;2023-02-28T08:41:23;9.15;;;2.90;;
47289;SDS011;33197;52.524;13.444;2023-02-28T08:43:50;4.32;;;2.83;;
47289;SDS011;33197;52.524;13.444;2023-02-28T08:46:17;10.68;;;3.42;;
47289;SDS011;33197;52.524;13.444;2023-02-28T08:48:45;6.57;;;2.35;;
47289;SDS011;33197;52.524;13.444;2023-02-28T08:51:13;3.30;;;1.90;;
47289;SDS011;33197;52.524;13.444;2023-02-28T08:53:45;4.82;;;2.17;;
47289;SDS011;33197;52.524;13.444;2023-02-28T08:56:13;5.57;;;2.80;;
47289;SDS011;33197;52.524;13.444;2023-02-28T08:58:43;4.60;;;2.33;;
47289;SDS011;33197;52.524;13.444;2023-02-28T09:01:12;5.82;;;2.13;;
47289;SDS011;33197;52.524;13.444;2023-02-28T09:03:41;4.32;;;2.10;;
47289;SDS011;33197;52.524;13.444;2023-02-28T09:06:09;4.13;;;2.30;;
47289;SDS011;33197;52.524;13.444;2023-02-28T09:08:36;3.92;;;1.80;;
47289;SDS011;33197;52.524;13.444;2023-02-28T09:11:04;3.38;;;1.30;;
47289;SDS011;33197;52.524;13.444;2023-02-28T09:13:31;4.32;;;1.55;;
47289;SDS011;33197;52.524;13.444;2023-02-28T09:15:59;5.95;;;2.63;;
47289;SDS011;33197;52.524;13.444;2023-02-28T09:18:27;4.60;;;2.00;;
47289;SDS011;33197;52.524;13.444;2023-02-28T09:20:55;4.72;;;1.90;;
47289;SDS011;33197;52.524;13.444;2023-02-28T09:23:22;3.88;;;1.98;;
47289;SDS011;33197;52.524;13.444;2023-02-28T09:25:54;3.67;;;1.73;;
47289;SDS011;33197;52.524;13.444;2023-02-28T09:28:21;3.75;;;1.90;;
47289;SDS011;33197;52.524;13.444;2023-02-28T09:30:50;3.58;;;1.98;;
47289;SDS011;33197;52.524;13.444;2023-02-28T09:33:18;4.05;;;2.03;;
47289;SDS011;33197;52.524;13.444;2023-02-28T09:35:50;4.80;;;2.75;;
47289;SDS011;33197;52.524;13.444;2023-02-28T09:38:17;6.13;;;2.35;;
47289;SDS011;33197;52.524;13.444;2023-02-28T09:40:52;3.88;;;2.67;;
47289;SDS011;33197;52.524;13.444;2023-02-28T09:43:21;4.47;;;1.75;;
47289;SDS011;33197;52.524;13.444;2023-02-28T09:45:59;5.97;;;2.70;;
47289;SDS011;33197;52.524;13.444;2023-02-28T09:48:32;4.15;;;2.35;;
47289;SDS011;33197;52.524;13.444;2023-02-28T09:51:09;5.72;;;2.50;;
47289;SDS011;33197;52.524;13.444;2023-02-28T09:53:43;5.05;;;2.28;;
47289;SDS011;33197;52.524;13.444;2023-02-28T09:56:20;5.85;;;2.13;;
47289;SDS011;33197;52.524;13.444;2023-02-28T09:58:54;5.82;;;2.22;;
47289;SDS011;33197;52.524;13.444;2023-02-28T10:07:07;4.47;;;1.67;;
47289;SDS011;33197;52.524;13.444;2023-02-28T10:09:45;4.40;;;2.30;;
47289;SDS011;33197;52.524;13.444;2023-02-28T10:12:14;4.13;;;1.90;;
47289;SDS011;33197;52.524;13.444;2023-02-28T10:14:44;4.35;;;2.22;;
47289;SDS011;33197;52.524;13.444;2023-02-28T10:17:15;4.50;;;2.15;;
47289;SDS011;33197;52.524;13.444;2023-02-28T10:19:58;3.22;;;1.80;;
47289;SDS011;33197;52.524;13.444;2023-02-28T10:25:35;3.28;;;1.80;;
47289;SDS011;33197;52.524;13.444;2023-02-28T10:30:36;6.25;;;1.95;;
47289;SDS011;33197;52.524;13.444;2023-02-28T10:33:20;5.28;;;2.65;;
47289;SDS011;33197;52.524;13.444;2023-02-28T10:35:50;5.97;;;1.73;;
47289;SDS011;33197;52.524;13.444;2023-02-28T10:38:20;4.30;;;2.22;;
47289;SDS011;33197;52.524;13.444;2023-02-28T10:41:08;4.93;;;2.03;;
47289;SDS011;33197;52.524;13.444;2023-02-28T10:43:37;7.93;;;2.30;;
47289;SDS011;33197;52.524;13.444;2023-02-28T10:48:44;5.03;;;1.95;;
47289;SDS011;33197;52.524;13.444;2023-02-28T10:51:16;4.78;;;1.90;;
47289;SDS011;33197;52.524;13.444;2023-02-28T10:53:52;4.18;;;2.22;;
47289;SDS011;33197;52.524;13.444;2023-02-28T10:56:29;9.13;;;2.13;;
47289;SDS011;33197;52.524;13.444;2023-02-28T11:03:57;4.45;;;2.25;;
47289;SDS011;33197;52.524;13.444;2023-02-28T11:06:31;3.53;;;2.35;;
47289;SDS011;33197;52.524;13.444;2023-02-28T11:09:02;3.50;;;1.98;;
47289;SDS011;33197;52.524;13.444;2023-02-28T11:11:41;5.68;;;2.22;;
47289;SDS011;33197;52.524;13.444;2023-02-28T11:14:18;3.92;;;2.55;;
47289;SDS011;33197;52.524;13.444;2023-02-28T11:16:45;5.15;;;2.13;;
47289;SDS011;33197;52.524;13.444;2023-02-28T11:19:17;4.40;;;2.30;;
47289;SDS011;33197;52.524;13.444;2023-02-28T11:21:57;3.92;;;2.78;;
47289;SDS011;33197;52.524;13.444;2023-02-28T11:24:27;6.63;;;2.88;;
47289;SDS011;33197;52.524;13.444;2023-02-28T11:26:56;3.78;;;1.90;;
47289;SDS011;33197;52.524;13.444;2023-02-28T11:29:28;4.82;;;2.65;;
47289;SDS011;33197;52.524;13.444;2023-02-28T11:34:38;5.90;;;3.05;;
47289;SDS011;33197;52.524;13.444;2023-02-28T11:37:18;5.43;;;2.35;;
47289;SDS011;33197;52.524;13.444;2023-02-28T11:39:46;8.50;;;2.72;;
47289;SDS011;33197;52.524;13.444;2023-02-28T11:50:40;4.35;;;2.47;;
47289;SDS011;33197;52.524;13.444;2023-02-28T11:56:25;4.60;;;2.63;;
47289;SDS011;33197;52.524;13.444;2023-02-28T12:10:30;6.97;;;2.60;;
47289;SDS011;33197;52.524;13.444;2023-02-28T12:18:27;13.32;;;3.25;;
47289;SDS011;33197;52.524;13.444;2023-02-28T12:21:13;4.70;;;2.28;;
47289;SDS011;33197;52.524;13.444;2023-02-28T12:23:55;3.70;;;2.60;;
47289;SDS011;33197;52.524;13.444;2023-02-28T12:29:15;4.82;;;2.58;;
47289;SDS011;33197;52.524;13.444;2023-02-28T12:32:09;5.00;;;2.17;;
47289;SDS011;33197;52.524;13.444;2023-02-28T12:34:47;3.38;;;2.38;;
47289;SDS011;33197;52.524;13.444;2023-02-28T12:37:17;5.57;;;2.70;;
47289;SDS011;33197;52.524;13.444;2023-02-28T12:39:51;5.75;;;2.70;;
47289;SDS011;33197;52.524;13.444;2023-02-28T12:42:26;4.05;;;2.15;;
47289;SDS011;33197;52.524;13.444;2023-02-28T12:45:02;3.78;;;2.30;;
47289;SDS011;33197;52.524;13.444;2023-02-28T12:47:40;3.50;;;2.10;;
47289;SDS011;33197;52.524;13.444;2023-02-28T12:50:10;4.28;;;2.40;;
47289;SDS011;33197;52.524;13.444;2023-02-28T12:52:45;4.00;;;2.15;;
47289;SDS011;33197;52.524;13.444;2023-02-28T12:55:38;4.88;;;2.40;;
47289;SDS011;33197;52.524;13.444;2023-02-28T13:00:46;4.22;;;2.45;;
47289;SDS011;33197;52.524;13.444;2023-02-28T13:11:24;3.30;;;1.90;;
47289;SDS011;33197;52.524;13.444;2023-02-28T13:14:02;3.72;;;2.10;;
47289;SDS011;33197;52.524;13.444;2023-02-28T13:16:49;4.85;;;1.98;;
47289;SDS011;33197;52.524;13.444;2023-02-28T13:19:20;4.32;;;2.67;;
47289;SDS011;33197;52.524;13.444;2023-02-28T13:21:50;3.95;;;2.30;;
47289;SDS011;33197;52.524;13.444;2023-02-28T13:29:32;4.88;;;3.40;;
47289;SDS011;33197;52.524;13.444;2023-02-28T13:34:46;5.82;;;2.20;;
47289;SDS011;33197;52.524;13.444;2023-02-28T13:37:35;4.10;;;2.22;;
47289;SDS011;33197;52.524;13.444;2023-02-28T13:40:26;6.10;;;2.70;;
47289;SDS011;33197;52.524;13.444;2023-02-28T13:42:53;5.07;;;2.13;;
47289;SDS011;33197;52.524;13.444;2023-02-28T13:45:22;6.35;;;2.45;;
47289;SDS011;33197;52.524;13.444;2023-02-28T14:06:59;4.25;;;2.20;;
47289;SDS011;33197;52.524;13.444;2023-02-28T14:11:56;2.83;;;2.10;;
47289;SDS011;33197;52.524;13.444;2023-02-28T14:17:03;4.25;;;2.40;;
47289;SDS011;33197;52.524;13.444;2023-02-28T14:19:35;6.03;;;2.42;;
47289;SDS011;33197;52.524;13.444;2023-02-28T14:25:08;3.45;;;2.03;;
47289;SDS011;33197;52.524;13.444;2023-02-28T14:38:55;4.25;;;3.00;;
47289;SDS011;33197;52.524;13.444;2023-02-28T14:41:29;3.85;;;2.38;;
47289;SDS011;33197;52.524;13.444;2023-02-28T14:43:59;2.97;;;2.28;;
47289;SDS011;33197;52.524;13.444;2023-02-28T14:46:38;3.30;;;2.35;;
47289;SDS011;33197;52.524;13.444;2023-02-28T14:49:07;6.68;;;3.00;;
47289;SDS011;33197;52.524;13.444;2023-02-28T14:52:06;5.35;;;2.78;;
47289;SDS011;33197;52.524;13.444;2023-02-28T14:54:40;3.33;;;2.53;;
47289;SDS011;33197;52.524;13.444;2023-02-28T14:57:20;6.18;;;3.08;;
47289;SDS011;33197;52.524;13.444;2023-02-28T15:00:04;3.03;;;2.28;;
47289;SDS011;33197;52.524;13.444;2023-02-28T15:02:39;3.25;;;2.63;;
47289;SDS011;33197;52.524;13.444;2023-02-28T15:07:36;4.25;;;2.38;;
47289;SDS011;33197;52.524;13.444;2023-02-28T15:12:40;4.22;;;2.47;;
47289;SDS011;33197;52.524;13.444;2023-02-28T15:15:15;7.13;;;2.45;;
47289;SDS011;33197;52.524;13.444;2023-02-28T15:20:15;5.35;;;2.30;;
47289;SDS011;33197;52.524;13.444;2023-02-28T15:22:43;5.13;;;3.13;;
47289;SDS011;33197;52.524;13.444;2023-02-28T15:25:13;3.13;;;2.30;;
47289;SDS011;33197;52.524;13.444;2023-02-28T15:27:44;5.13;;;2.58;;
47289;SDS011;33197;52.524;13.444;2023-02-28T15:30:17;6.35;;;3.08;;
47289;SDS011;33197;52.524;13.444;2023-02-28T15:33:01;4.63;;;2.65;;
47289;SDS011;33197;52.524;13.444;2023-02-28T15:35:32;5.70;;;2.88;;
47289;SDS011;33197;52.524;13.444;2023-02-28T15:38:16;4.28;;;2.80;;
47289;SDS011;33197;52.524;13.444;2023-02-28T15:40:46;11.63;;;2.92;;
47289;SDS011;33197;52.524;13.444;2023-02-28T15:46:02;4.63;;;3.00;;
47289;SDS011;33197;52.524;13.444;2023-02-28T15:51:08;4.65;;;2.97;;
47289;SDS011;33197;52.524;13.444;2023-02-28T15:56:20;6.30;;;2.95;;
47289;SDS011;33197;52.524;13.444;2023-02-28T15:58:56;4.72;;;2.50;;
47289;SDS011;33197;52.524;13.444;2023-02-28T16:01:30;4.47;;;2.70;;
47289;SDS011;33197;52.524;13.444;2023-02-28T16:04:00;4.85;;;2.78;;
47289;SDS011;33197;52.524;13.444;2023-02-28T16:06:34;5.43;;;2.70;;
47289;SDS011;33197;52.524;13.444;2023-02-28T16:09:08;5.13;;;2.92;;
47289;SDS011;33197;52.524;13.444;2023-02-28T16:11:38;5.38;;;3.00;;
47289;SDS011;33197;52.524;13.444;2023-02-28T16:14:18;6.53;;;2.88;;
47289;SDS011;33197;52.524;13.444;2023-02-28T16:16:51;3.78;;;2.70;;
47289;SDS011;33197;52.524;13.444;2023-02-28T16:19:20;5.55;;;2.65;;
47289;SDS011;33197;52.524;13.444;2023-02-28T16:21:48;6.30;;;3.25;;
47289;SDS011;33197;52.524;13.444;2023-02-28T16:24:15;5.97;;;3.00;;
47289;SDS011;33197;52.524;13.444;2023-02-28T16:26:45;4.97;;;2.83;;
47289;SDS011;33197;52.524;13.444;2023-02-28T16:29:18;4.35;;;2.60;;
47289;SDS011;33197;52.524;13.444;2023-02-28T16:31:57;5.68;;;3.17;;
47289;SDS011;33197;52.524;13.444;2023-02-28T16:34:24;5.72;;;2.70;;
47289;SDS011;33197;52.524;13.444;2023-02-28T16:36:52;5.20;;;2.90;;
47289;SDS011;33197;52.524;13.444;2023-02-28T16:39:19;6.57;;;3.45;;
47289;SDS011;33197;52.524;13.444;2023-02-28T16:41:47;6.63;;;3.00;;
47289;SDS011;33197;52.524;13.444;2023-02-28T16:44:28;5.22;;;2.97;;
47289;SDS011;33197;52.524;13.444;2023-02-28T16:46:59;8.02;;;3.33;;
47289;SDS011;33197;52.524;13.444;2023-02-28T16:49:26;5.18;;;3.10;;
47289;SDS011;33197;52.524;13.444;2023-02-28T16:51:54;6.40;;;3.03;;
47289;SDS011;33197;52.524;13.444;2023-02-28T16:54:21;8.18;;;3.25;;
47289;SDS011;33197;52.524;13.444;2023-02-28T16:56:48;4.05;;;2.78;;
47289;SDS011;33197;52.524;13.444;2023-02-28T16:59:18;8.27;;;3.03;;
47289;SDS011;33197;52.524;13.444;2023-02-28T17:01:48;7.60;;;3.28;;
47289;SDS011;33197;52.524;13.444;2023-02-28T17:04:17;6.65;;;3.75;;
47289;SDS011;33197;52.524;13.444;2023-02-28T17:06:44;8.18;;;3.70;;
47289;SDS011;33197;52.524;13.444;2023-02-28T17:09:21;4.68;;;3.00;;
47289;SDS011;33197;52.524;13.444;2023-02-28T17:11:56;5.40;;;3.30;;
47289;SDS011;33197;52.524;13.444;2023-02-28T17:14:23;4.80;;;3.22;;
47289;SDS011;33197;52.524;13.444;2023-02-28T17:16:50;9.82;;;3.97;;
47289;SDS011;33197;52.524;13.444;2023-02-28T17:19:17;7.25;;;3.78;;
47289;SDS011;33197;52.524;13.444;2023-02-28T17:21:45;7.38;;;3.75;;
47289;SDS011;33197;52.524;13.444;2023-02-28T17:24:12;6.45;;;3.88;;
47289;SDS011;33197;52.524;13.444;2023-02-28T17:26:44;5.40;;;3.53;;
47289;SDS011;33197;52.524;13.444;2023-02-28T17:29:15;7.88;;;3.83;;